• Join FlightAware (Why Join?)
  • Login
  • US Flag 
08:19AM EDT


 

Airport Tracker/Info


-or-


 

Live Flight TrackerFlight Track Log ✈ UAL1650 ✈ 01-Nov-2013 ✈ KDEN - KIAH

Flight Track Log - Related Links

Times and Time Zones

All times are in EDT time to prevent confusion due to time zone crossing. See the UAL1650 flight status page for this flight to view local times or setup timezone preferences in your user account.

Time Position Orientation Groundspeed Altitude Reporting Facility
EDT Latitude Longitude Course Direction KTS MPH feet Rate Location/Type
05:08PM 39.8667 -104.5667 162° South 224 258 7,100  Level Denver TRACON
05:09PM 39.8333 -104.4667 113° Southeast 284 327 9,200 1,860 Climbing Denver TRACON
05:09PM 39.8181 -104.4172 112° Southeast 289 333 10,000 1,560 Climbing Denver Center
05:10PM 39.5897 -104.3717 163° South  Level Estimated
05:10PM 39.7408 -104.3844 162° South 315 362 11,700  Level Denver Center
05:11PM 39.4988 -104.2717 165° South  Level Estimated
05:11PM 39.6483 -104.4336 202° Southwest 335 386 14,300  Level Denver Center
05:12PM 39.4079 -104.1720 161° South  Level Estimated
05:12PM 39.5514 -104.4814 201° Southwest 375 432 16,300  Level Denver Center
05:13PM 39.3169 -104.0725 162° South  Level Estimated
05:13PM 39.4417 -104.5064 190° South 399 459 17,700  Level Denver Center
05:14PM 39.3061 -104.5231 185° South 466 536 19,600 1,800 Climbing Denver Center
05:15PM 39.1808 -104.4783 165° South 465 535 21,500 1,800 Climbing Denver Center
05:16PM 39.0569 -104.4189 160° South 471 542 23,400 1,740 Climbing Denver Center
05:17PM 38.9114 -104.3506 160° South 492 566 25,200 1,620 Climbing Denver Center
05:19PM 38.7772 -104.2864 160° South 508 585 26,800 1,380 Climbing Denver Center
05:20PM 38.6417 -104.2192 159° South 519 597 28,100 1,320 Climbing Denver Center
05:21PM 38.5206 -104.1011 143° Southeast 523 602 29,600 1,500 Climbing Denver Center
05:22PM 38.4133 -103.9856 140° Southeast 522 601 31,200 1,320 Climbing Denver Center
05:23PM 38.2956 -103.8433 137° Southeast 519 597 32,400 960 Climbing Denver Center
05:24PM 38.1917 -103.7244 138° Southeast 522 601 33,200 900 Climbing Denver Center
05:25PM 38.0686 -103.5847 138° Southeast 525 604 34,300 780 Climbing Denver Center
05:26PM 37.9625 -103.4644 138° Southeast 529 609 34,900 300 Climbing Denver Center
05:27PM 37.8358 -103.3228 139° Southeast 540 621 35,000  Climbing Denver Center
05:28PM 37.7286 -103.2019 138° Southeast 538 619 35,000  Level Denver Center
05:29PM 37.6025 -103.0603 138° Southeast 539 620 35,000  Level Denver Center
05:30PM 37.4944 -102.9375 138° Southeast 541 623 35,000  Level Denver Center
05:31PM 37.3856 -102.8158 138° Southeast 544 626 35,000  Level Denver Center
05:32PM 37.2592 -102.6750 138° Southeast 544 626 35,000  Level Denver Center
05:33PM 37.1492 -102.5531 139° Southeast 547 629 35,000  Level Denver Center
05:34PM 37.0192 -102.4092 139° Southeast 548 631 35,000  Level Denver Center
05:35PM 36.8731 -102.2481 139° Southeast 551 634 35,000  Level Albuquerque Center
05:36PM 36.7439 -102.1069 139° Southeast 553 636 35,000  Level Albuquerque Center
05:37PM 36.6333 -101.9850 138° Southeast 555 639 35,000  Level Albuquerque Center
05:38PM 36.5094 -101.8517 139° Southeast 553 636 35,000  Level Albuquerque Center
05:40PM 36.3933 -101.7269 139° Southeast 552 635 35,000  Level Albuquerque Center
05:41PM 36.2772 -101.6006 139° Southeast 553 636 35,000  Level Albuquerque Center
05:42PM 36.1608 -101.4769 139° Southeast 552 635 35,000  Level Albuquerque Center
05:43PM 36.0450 -101.3522 139° Southeast 551 634 35,000  Level Albuquerque Center
05:44PM 35.9292 -101.2269 139° Southeast 551 634 35,000  Level Albuquerque Center
05:45PM 35.7903 -101.0800 139° Southeast 547 629 35,000  Level Albuquerque Center
05:46PM 35.6747 -100.9569 139° Southeast 547 629 35,000  Level Albuquerque Center
05:47PM 35.5586 -100.8344 139° Southeast 547 629 35,000  Level Albuquerque Center
05:48PM 35.4428 -100.7136 140° Southeast 546 628 35,000  Level Albuquerque Center
05:50PM 35.2142 -100.4781 140° Southeast 558 642 35,000  Level Fort Worth Center
05:51PM 35.0831 -100.3397 139° Southeast 538 619 35,000  Level Albuquerque Center
05:52PM 34.9683 -100.2222 140° Southeast 537 618 35,000  Level Albuquerque Center
05:53PM 34.8556 -100.1047 139° Southeast 536 617 35,000  Level Albuquerque Center
05:54PM 34.7414 -99.9883 140° Southeast 536 617 35,000  Level Albuquerque Center
05:55PM 34.6264 -99.8725 140° Southeast 536 617 35,000  Level Albuquerque Center
05:56PM 34.5492 -99.7936 140° Southeast 528 608 35,000  Level Fort Worth Center
05:57PM 34.4203 -99.6592 139° Southeast 541 623 35,000  Level Fort Worth Center
05:58PM 34.3178 -99.5583 141° Southeast 536 617 35,000  Level Fort Worth Center
05:59PM 34.2089 -99.4503 141° Southeast 525 604 35,000  Level Fort Worth Center
06:00PM 34.0939 -99.3347 140° Southeast 532 612 35,000  Level Fort Worth Center
06:01PM 33.9808 -99.2194 140° Southeast 532 612 35,000  Level Fort Worth Center
06:02PM 33.8675 -99.1094 141° Southeast 532 612 35,000  Level Fort Worth Center
06:03PM 33.7583 -99.0000 140° Southeast 527 606 35,000  Level Fort Worth Center
06:04PM 33.6428 -98.8906 142° Southeast 527 606 35,000  Level Fort Worth Center
06:05PM 33.5211 -98.7639 139° Southeast 527 606 35,000  Level Fort Worth Center
06:06PM 33.4075 -98.6553 141° Southeast 532 612 35,000  Level Fort Worth Center
06:07PM 33.2958 -98.5467 141° Southeast 527 606 35,000  Level Fort Worth Center
06:08PM 33.2047 -98.4586 141° Southeast 527 606 35,000  Level Fort Worth Center
06:09PM 33.0844 -98.3456 142° Southeast 521 600 35,000  Level Fort Worth Center
06:10PM 32.9767 -98.2406 141° Southeast 515 593 35,000  Level Fort Worth Center
06:11PM 32.8667 -98.1356 141° Southeast 515 593 35,000  Level Fort Worth Center
06:12PM 32.7506 -98.0236 141° Southeast 515 593 35,000  Level Fort Worth Center
06:13PM 32.6508 -97.9044 135° Southeast 515 593 35,000  Level Fort Worth Center
06:14PM 32.5469 -97.7781 134° Southeast 515 593 35,000  Level Fort Worth Center
06:15PM 32.4469 -97.6547 134° Southeast 521 600 35,000  Level Fort Worth Center
06:16PM 32.3469 -97.5289 133° Southeast 521 600 35,000  Level Fort Worth Center
06:17PM 32.2447 -97.4036 134° Southeast 521 600 35,000  Level Fort Worth Center
06:18PM 32.1444 -97.2761 133° Southeast 521 600 35,000  Level Fort Worth Center
06:19PM 32.0461 -97.1536 133° Southeast 521 600 35,000  Level Fort Worth Center
06:20PM 31.9372 -97.0192 134° Southeast 521 600 35,000  Level Fort Worth Center
06:21PM 31.8386 -96.8997 134° Southeast 521 600 35,000  Level Fort Worth Center
06:21PM 31.7847 -96.8317 133° Southeast 520 598 35,000 -660 Level Houston Center
06:22PM 31.6817 -96.7083 134° Southeast 522 601 34,000 -1,320 Descending Houston Center
06:23PM 31.5736 -96.6033 140° Southeast 497 572 32,300 -2,280 Descending Houston Center
06:24PM 31.4442 -96.5564 163° South 483 556 29,300 -1,860 Descending Houston Center
06:25PM 31.2925 -96.5181 168° South 473 544 28,500 -1,380 Descending Houston Center
06:26PM 31.1633 -96.4814 166° South 472 543 26,500 -2,280 Descending Houston Center
06:27PM 31.0519 -96.4025 149° Southeast 465 535 23,900 -2,400 Descending Houston Center
06:29PM 30.9508 -96.3100 142° Southeast 457 526 21,600 -2,280 Descending Houston Center
06:30PM 30.8517 -96.2189 142° Southeast 449 517 19,200 -2,280 Descending Houston Center
06:31PM 30.7564 -96.1339 143° Southeast 431 496 17,000 -2,280 Descending Houston Center
06:31PM 30.7214 -96.1039 144° Southeast 413 475 16,300 -2,280 Descending Houston Center
06:31PM 30.6672 -96.0567 143° Southeast 390 449 15,000 -1,680 Descending Houston Center
06:32PM 30.6686 -96.0536 62° Northeast 403 464 15,000 -1,920 Level Houston Center
06:32PM 30.5875 -95.9833 143° Southeast 372 428 13,100 -2,040 Descending Houston Center
06:33PM 30.5800 -95.9753 137° Southeast 377 434 12,900 -1,500 Descending Houston Center
06:33PM 30.5078 -95.9125 143° Southeast 333 383 11,600 -1,440 Descending Houston Center
06:34PM 30.5050 -95.9072 121° Southeast 346 398 11,400 -1,740 Descending Houston Center
06:35PM 30.4250 -95.8517 149° Southeast 318 366 9,700 -1,680 Descending Houston Center
06:35PM 30.4314 -95.8514 North 320 368 9,700 -1,560 Level Houston Center
06:36PM 30.3461 -95.8150 160° South 299 344 8,100 -1,860 Descending Houston Center
06:36PM 30.3367 -95.8119 164° South 302 348 7,800 -1,800 Descending Houston Center
06:37PM 30.2689 -95.7731 154° Southeast 305 351 6,300 -1,560 Descending Houston Center
06:37PM 30.2622 -95.7694 155° Southeast 299 344 6,200 -1,200 Descending Houston Center
06:38PM 30.2097 -95.7197 141° Southeast 296 341 5,200 -1,260 Descending Houston Center
06:38PM 30.1981 -95.7078 138° Southeast 298 343 4,900 -1,080 Descending Houston Center
06:39PM 30.1433 -95.6572 141° Southeast 283 326 4,100 -900 Descending Houston Center
06:39PM 30.1353 -95.6506 144° Southeast 291 335 4,000 -840 Descending Houston Center
06:40PM 30.0817 -95.6019 142° Southeast 254 292 3,200 -900 Descending Houston Center
06:40PM 30.0797 -95.5989 126° Southeast 264 304 3,100 -240 Descending Houston Center
06:41PM 30.0414 -95.5511 133° Southeast 234 269 3,000 -120 Descending Houston Center
06:41PM 30.0378 -95.5442 121° Southeast 235 270 3,000 -540 Level Houston Center
06:42PM 30.0050 -95.4953 128° Southeast 202 232 2,500 -900 Descending Houston Center
06:42PM 30.0067 -95.4767 84° East 218 251 2,100 -1,200 Descending Houston Center
06:43PM 30.0056 -95.4322 92° East 184 212 1,300 -1,020 Descending Houston Center
06:43PM 30.0078 -95.4192 79° East 194 223 1,100 -840 Descending Houston Center
06:44PM 30.0075 -95.3839 91° East 151 174 500 -780 Descending Houston Center
06:44PM 30.0078 -95.3694 89° East 171 197 300 -600 Descending Houston Center